Accueil
METAR-TAF:

METAR-TAF

Aéroports :

Cervia, Italie

latitude: 44-13N, longitude: 012-18E, altitude: 6 m

Observation

Le bulletin a été fait il y a 34 minutes, à 22:55 UTC
Vent 2 kt de nord-ouest
Température 3°C
Humidité 87%
Pression 1005 hPa
Visibilité: 4000 m
Nuages fragmentés à une hauteur de 2000 ft
brume

METAR: LIPC 032255Z 31002KT 4000 BR BKN020 03/01 Q1005 RMK BKN VIS MIN 4000 WIND THR11 33002KT WIND THR29 /////KT GRN

Heure: 00:29 (23:29 UTC)

Prévision

Le bulletin a été fait il y a 3 heures et 29 minutes, à 20:00 UTC
Prévision valable du 03 à 21 UTC au 04 à 06 UTC
Vent 5 kt de ouest
Visibilité: 5000 m
Nuages épars à une hauteur de 2000 ft
Nuages épars à une hauteur de 5000 ft
brume
Evoluant progressivement
du 03 à 23 UTC au 04 à 01 UTC
Visibilité: 2500 m
Nuages fragmentés à une hauteur de 2000 ft
brume

TAF: LIPC 032000Z 0321/0406 27005KT 5000 BR SCT020 SCT050 BECMG 0323/0401 2500 BR BKN020

Observations et prévisions météorologiques de plus de 4000 aéroports (messages METAR et TAF).

Les stations disponibles sont représentées par des disques jaunes et rouges sur la carte.

Passer la souris dessus pour voir le nom de la station.

Cliquer dessus pour voir les observations et prévisions météorologiques.

Pour changer de carte: cliquez sur les boutons verts avec une croix noire pour zoomer, sur le bouton vert avec un tiret pour effectuer un zoom arrière, ou sur les flèches vertes pour les cartes adjacentes.


METAR-TAF: